createdAt,value
2023-03-04T00:00:52.848Z,2.37
2023-03-04T00:03:54.255Z,2.43
2023-03-04T00:06:55.677Z,2.38
2023-03-04T00:09:57.318Z,2.39
2023-03-04T00:12:58.719Z,2.35
2023-03-04T00:16:00.212Z,2.27
2023-03-04T00:19:01.633Z,2.28
2023-03-04T00:22:04.445Z,2.27
2023-03-04T00:25:07.409Z,2.28
2023-03-04T00:28:08.807Z,2.22
2023-03-04T00:31:10.797Z,2.27
2023-03-04T00:34:12.182Z,2.24
2023-03-04T00:37:13.709Z,2.20
2023-03-04T00:40:15.207Z,2.01
2023-03-04T00:43:16.598Z,1.95
2023-03-04T00:46:18.028Z,2.01
2023-03-04T00:49:19.448Z,2.03
2023-03-04T00:52:21.030Z,2.03
2023-03-04T00:55:22.488Z,2.02
2023-03-04T00:58:23.941Z,1.98
2023-03-04T01:01:26.128Z,1.91
2023-03-04T01:04:27.677Z,1.89
2023-03-04T01:07:29.162Z,1.77
2023-03-04T01:10:31.044Z,1.76
2023-03-04T01:13:33.426Z,1.69
2023-03-04T01:16:34.947Z,1.59
2023-03-04T01:19:36.419Z,1.56
2023-03-04T01:22:38.154Z,1.61
2023-03-04T01:25:39.564Z,1.60
2023-03-04T01:28:41.098Z,1.60
2023-03-04T01:31:42.610Z,1.58
2023-03-04T01:34:44.154Z,1.51
2023-03-04T01:37:45.594Z,1.54
2023-03-04T01:40:48.406Z,1.45
2023-03-04T01:43:50.412Z,1.50
2023-03-04T01:46:53.795Z,1.52
2023-03-04T01:49:57.520Z,1.56
2023-03-04T01:52:59.381Z,1.47
2023-03-04T01:56:10.797Z,1.46
2023-03-04T01:59:20.891Z,1.37
2023-03-04T02:02:22.828Z,1.40
2023-03-04T02:05:24.706Z,1.38
2023-03-04T02:08:26.105Z,1.32
2023-03-04T02:11:27.587Z,1.24
2023-03-04T02:14:29.605Z,1.24
2023-03-04T02:17:33.217Z,1.14
2023-03-04T02:25:24.019Z,1.12
2023-03-04T02:28:25.910Z,1.02
2023-03-04T02:31:34.213Z,0.91
2023-03-04T02:34:36.471Z,0.95
2023-03-04T02:37:37.904Z,0.94
2023-03-04T02:40:43.047Z,0.99
2023-03-04T02:43:46.484Z,0.91
2023-03-04T02:46:50.140Z,0.88
2023-03-04T02:49:51.611Z,0.80
2023-03-04T02:52:53.013Z,0.84
2023-03-04T02:55:54.442Z,0.79
2023-03-04T02:58:57.963Z,0.86
2023-03-04T03:02:00.224Z,0.86
2023-03-04T03:05:01.939Z,0.88
2023-03-04T03:08:04.184Z,0.88
2023-03-04T03:11:06.853Z,0.82
2023-03-04T03:14:10.323Z,0.81
2023-03-04T03:17:11.781Z,0.79
2023-03-04T03:20:14.921Z,0.72
2023-03-04T03:23:17.992Z,0.39
2023-03-04T03:26:20.276Z,0.30
2023-03-04T03:29:21.692Z,0.24
2023-03-04T03:32:23.145Z,0.29
2023-03-04T03:35:26.140Z,0.34
2023-03-04T03:38:27.777Z,0.47
2023-03-04T03:41:29.253Z,0.49
2023-03-04T03:44:30.715Z,0.45
2023-03-04T03:47:32.208Z,0.40
2023-03-04T03:50:33.685Z,0.31
2023-03-04T03:53:35.105Z,0.40
2023-03-04T03:56:36.481Z,0.45
2023-03-04T03:59:37.863Z,0.51
2023-03-04T04:02:39.956Z,0.55
2023-03-04T04:05:41.406Z,0.54
2023-03-04T04:08:42.803Z,0.54
2023-03-04T04:11:44.192Z,0.53
2023-03-04T04:14:45.837Z,0.53
2023-03-04T04:17:47.268Z,0.53
2023-03-04T04:20:48.655Z,0.53
2023-03-04T04:23:50.048Z,0.50
2023-03-04T04:26:51.457Z,0.53
2023-03-04T04:29:52.853Z,0.56
2023-03-04T04:32:54.240Z,0.41
2023-03-04T04:35:55.684Z,0.38
2023-03-04T04:38:57.542Z,0.32
2023-03-04T04:41:58.949Z,0.15
2023-03-04T04:45:00.354Z,0.08
2023-03-04T04:48:01.767Z,0.06
2023-03-04T04:51:03.259Z,-0.05
2023-03-04T04:54:05.643Z,-0.04
2023-03-04T04:57:07.019Z,0.05
2023-03-04T05:00:10.001Z,0.18
2023-03-04T05:03:11.435Z,0.25
2023-03-04T05:06:13.226Z,0.37
2023-03-04T05:09:14.783Z,0.38
2023-03-04T05:12:16.157Z,0.44
2023-03-04T05:15:17.744Z,0.38
2023-03-04T05:18:20.416Z,0.41
2023-03-04T05:21:21.838Z,0.45
2023-03-04T05:24:23.219Z,0.45
2023-03-04T05:27:24.645Z,0.31
2023-03-04T05:30:26.019Z,0.17
2023-03-04T05:33:27.531Z,0.10
2023-03-04T05:36:28.904Z,0.13
2023-03-04T05:39:30.270Z,0.08
2023-03-04T05:42:31.688Z,0.19
2023-03-04T05:45:33.600Z,0.20
2023-03-04T05:48:35.042Z,0.22
2023-03-04T05:51:36.483Z,0.26
2023-03-04T05:54:37.889Z,0.32
2023-03-04T05:57:39.334Z,0.35
2023-03-04T06:00:40.758Z,0.40
2023-03-04T06:03:43.329Z,0.47
2023-03-04T06:06:46.557Z,0.50
2023-03-04T06:09:47.981Z,0.47
2023-03-04T06:12:49.396Z,0.55
2023-03-04T06:15:58.958Z,0.54
2023-03-04T06:19:00.347Z,0.50
2023-03-04T06:22:01.721Z,0.47
2023-03-04T06:25:03.621Z,0.52
2023-03-04T06:28:05.038Z,0.55
2023-03-04T06:31:06.442Z,0.58
2023-03-04T06:34:09.400Z,0.62
2023-03-04T06:37:10.804Z,0.60
2023-03-04T06:40:13.214Z,0.66
2023-03-04T06:43:14.598Z,0.82
2023-03-04T06:46:15.974Z,0.82
2023-03-04T06:49:17.533Z,0.69
2023-03-04T06:52:19.023Z,0.74
2023-03-04T06:55:20.570Z,0.77
2023-03-04T06:58:21.971Z,0.72
2023-03-04T07:01:25.942Z,0.69
2023-03-04T07:04:27.449Z,0.81
2023-03-04T07:07:28.980Z,0.85
2023-03-04T07:10:30.449Z,0.93
2023-03-04T07:13:32.539Z,0.89
2023-03-04T07:16:34.097Z,1.02
2023-03-04T07:19:35.495Z,1.08
2023-03-04T07:22:37.183Z,1.14
2023-03-04T07:25:38.639Z,1.22
2023-03-04T07:28:40.295Z,1.32
2023-03-04T07:31:42.140Z,1.33
2023-03-04T07:34:43.523Z,1.37
2023-03-04T07:37:45.086Z,1.29
2023-03-04T07:40:55.250Z,1.46
2023-03-04T07:43:58.099Z,1.36
2023-03-04T07:46:59.465Z,1.42
2023-03-04T07:50:00.917Z,1.43
2023-03-04T07:53:02.303Z,1.40
2023-03-04T07:56:04.998Z,1.50
2023-03-04T07:59:06.472Z,1.57
2023-03-04T08:02:08.035Z,1.58
2023-03-04T08:05:09.590Z,1.61
2023-03-04T08:08:11.038Z,1.57
2023-03-04T08:11:15.969Z,1.77
2023-03-04T08:14:17.416Z,1.87
2023-03-04T08:17:18.832Z,1.95
2023-03-04T08:20:20.331Z,1.90
2023-03-04T08:23:21.737Z,1.94
2023-03-04T08:26:26.497Z,1.96
2023-03-04T08:29:28.272Z,1.79
2023-03-04T08:32:30.001Z,1.88
2023-03-04T08:35:31.667Z,1.88
2023-03-04T08:38:33.134Z,1.83
2023-03-04T08:41:34.511Z,1.90
2023-03-04T08:44:35.885Z,2.03
2023-03-04T08:47:37.952Z,2.12
2023-03-04T08:50:39.358Z,2.22
2023-03-04T08:53:41.382Z,2.23
2023-03-04T08:56:42.831Z,2.28
2023-03-04T08:59:44.225Z,2.34
2023-03-04T09:02:45.801Z,2.37
2023-03-04T09:05:48.256Z,2.44
2023-03-04T09:08:49.756Z,2.38
2023-03-04T09:11:51.202Z,2.35
2023-03-04T09:15:08.409Z,2.44
2023-03-04T09:18:12.150Z,2.57
2023-03-04T09:21:13.567Z,2.64
2023-03-04T09:24:15.267Z,2.57
2023-03-04T09:27:16.701Z,2.48
2023-03-04T09:30:18.475Z,2.44
2023-03-04T09:33:19.891Z,2.56
2023-03-04T09:36:22.023Z,2.75
2023-03-04T09:39:23.486Z,2.81
2023-03-04T09:42:36.932Z,2.80
2023-03-04T09:45:47.072Z,2.91
2023-03-04T09:48:54.603Z,2.85
2023-03-04T09:52:25.691Z,2.98
2023-03-04T09:55:39.211Z,3.11
2023-03-04T09:59:01.430Z,3.17
2023-03-04T10:02:19.085Z,3.08
2023-03-04T10:05:21.967Z,3.21
2023-03-04T10:08:41.238Z,3.11
2023-03-04T10:11:50.324Z,3.27
2023-03-04T10:15:00.706Z,3.39
2023-03-04T10:18:37.646Z,3.49
2023-03-04T10:21:43.001Z,3.46
2023-03-04T10:24:47.046Z,3.45
2023-03-04T10:27:54.008Z,3.57
2023-03-04T10:31:25.997Z,3.60
2023-03-04T10:34:27.699Z,3.60
2023-03-04T10:37:45.502Z,3.53
2023-03-04T10:40:47.098Z,3.65
2023-03-04T10:44:00.698Z,3.73
2023-03-04T10:47:02.204Z,3.67
2023-03-04T10:50:05.466Z,3.72
2023-03-04T10:53:25.252Z,3.82
2023-03-04T10:56:36.519Z,3.75
2023-03-04T10:59:43.374Z,3.87
2023-03-04T11:02:46.305Z,3.99
2023-03-04T11:05:48.312Z,3.96
2023-03-04T11:08:55.274Z,4.04
2023-03-04T11:12:00.290Z,4.07
2023-03-04T11:15:03.179Z,4.06
2023-03-04T11:18:10.069Z,4.19
2023-03-04T11:21:19.046Z,4.30
2023-03-04T11:24:29.591Z,4.34
2023-03-04T11:27:44.324Z,4.41
2023-03-04T11:30:50.043Z,4.44
2023-03-04T11:33:58.326Z,4.40
2023-03-04T11:37:08.299Z,4.59
2023-03-04T11:40:16.289Z,4.49
2023-03-04T11:43:24.551Z,4.53
2023-03-04T11:46:44.020Z,4.51
2023-03-04T11:50:03.396Z,4.58
2023-03-04T11:53:25.534Z,4.71
2023-03-04T11:56:33.079Z,4.71
2023-03-04T11:59:42.640Z,4.68
2023-03-04T12:03:18.454Z,4.80
2023-03-04T12:06:26.040Z,4.63
2023-03-04T12:09:57.102Z,4.72
2023-03-04T12:13:13.715Z,4.95
2023-03-04T12:16:48.566Z,4.65
2023-03-04T12:19:58.940Z,4.61
2023-03-04T12:23:22.263Z,4.74
2023-03-04T12:26:36.873Z,4.89
2023-03-04T12:29:44.353Z,5.18
2023-03-04T12:33:03.746Z,5.21
2023-03-04T12:36:29.998Z,5.11
2023-03-04T12:39:56.433Z,5.18
2023-03-04T12:43:09.633Z,5.13
2023-03-04T12:46:30.802Z,5.12
2023-03-04T12:50:03.268Z,4.92
2023-03-04T12:53:13.851Z,4.82
2023-03-04T12:56:22.641Z,4.95
2023-03-04T12:59:26.831Z,4.95
2023-03-04T13:03:06.413Z,5.12
2023-03-04T13:06:26.508Z,5.23
2023-03-04T13:09:43.778Z,5.30
2023-03-04T13:12:54.631Z,4.98
2023-03-04T13:16:23.315Z,4.91
2023-03-04T13:19:52.719Z,5.02
2023-03-04T13:22:58.340Z,5.20
2023-03-04T13:26:00.136Z,5.16
2023-03-04T13:29:14.050Z,5.27
2023-03-04T13:32:36.803Z,4.97
2023-03-04T13:35:50.452Z,4.98
2023-03-04T13:39:14.114Z,4.92
2023-03-04T13:42:39.869Z,5.03
2023-03-04T13:45:41.296Z,5.03
2023-03-04T13:48:43.081Z,5.22
2023-03-04T13:51:45.915Z,5.09
2023-03-04T13:54:47.379Z,5.23
2023-03-04T13:57:50.924Z,5.16
2023-03-04T14:00:54.788Z,5.04
2023-03-04T14:03:56.289Z,4.97
2023-03-04T14:07:00.149Z,4.96
2023-03-04T14:10:07.459Z,4.98
2023-03-04T14:13:09.213Z,4.94
2023-03-04T14:16:11.584Z,4.92
2023-03-04T14:19:24.619Z,4.89
2023-03-04T14:22:29.440Z,4.88
2023-03-04T14:25:36.985Z,5.04
2023-03-04T14:28:50.115Z,5.08
2023-03-04T14:31:53.177Z,4.93
2023-03-04T14:34:59.170Z,4.95
2023-03-04T14:38:06.381Z,5.05
2023-03-04T14:41:15.086Z,5.08
2023-03-04T14:44:36.067Z,5.03
2023-03-04T14:47:41.850Z,5.07
2023-03-04T14:50:51.287Z,5.21
2023-03-04T14:53:56.556Z,5.38
2023-03-04T14:57:00.636Z,5.43
2023-03-04T15:00:20.554Z,5.39
2023-03-04T15:03:30.335Z,5.38
2023-03-04T15:06:37.904Z,5.34
2023-03-04T15:09:40.916Z,5.38
2023-03-04T15:12:51.393Z,5.40
2023-03-04T15:16:00.886Z,5.52
2023-03-04T15:19:05.890Z,5.48
2023-03-04T15:22:08.045Z,5.39
2023-03-04T15:25:15.186Z,5.38
2023-03-04T15:28:20.641Z,5.40
2023-03-04T15:31:23.898Z,5.41
2023-03-04T15:34:25.287Z,5.48
2023-03-04T15:37:29.310Z,5.50
2023-03-04T15:40:38.880Z,5.41
2023-03-04T15:43:40.268Z,5.40
2023-03-04T15:46:42.064Z,5.37
2023-03-04T15:49:46.909Z,5.33
2023-03-04T15:52:50.862Z,5.42
2023-03-04T15:55:52.809Z,5.37
2023-03-04T15:58:56.689Z,5.38
2023-03-04T16:01:58.104Z,5.38
2023-03-04T16:04:59.529Z,5.41
2023-03-04T16:08:01.518Z,5.40
2023-03-04T16:11:03.045Z,5.38
2023-03-04T16:14:04.417Z,5.39
2023-03-04T16:17:05.829Z,5.48
2023-03-04T16:20:07.457Z,5.38
2023-03-04T16:23:23.746Z,5.38
2023-03-04T16:26:31.217Z,5.50
2023-03-04T16:29:32.586Z,5.46
2023-03-04T16:32:35.105Z,5.41
2023-03-04T16:35:37.582Z,5.36
2023-03-04T16:38:38.995Z,5.34
2023-03-04T16:41:40.365Z,5.33
2023-03-04T16:44:41.763Z,5.28
2023-03-04T16:47:43.287Z,5.30
2023-03-04T16:50:44.862Z,5.26
2023-03-04T16:53:53.274Z,5.23
2023-03-04T16:56:54.716Z,5.30
2023-03-04T16:59:56.207Z,5.26
2023-03-04T17:03:00.294Z,5.30
2023-03-04T17:06:01.775Z,5.31
2023-03-04T17:09:03.261Z,5.27
2023-03-04T17:12:06.462Z,5.23
2023-03-04T17:15:11.448Z,5.11
2023-03-04T17:18:12.877Z,5.14
2023-03-04T17:21:18.546Z,5.13
2023-03-04T17:24:19.985Z,5.17
2023-03-04T17:27:21.380Z,5.14
2023-03-04T17:30:22.819Z,5.16
2023-03-04T17:33:24.259Z,5.22
2023-03-04T17:36:25.627Z,5.11
2023-03-04T17:39:27.109Z,5.15
2023-03-04T17:42:28.544Z,5.19
2023-03-04T17:45:29.989Z,5.24
2023-03-04T17:48:31.698Z,5.22
2023-03-04T17:51:36.153Z,5.27
2023-03-04T17:54:37.869Z,5.24
2023-03-04T17:57:39.273Z,5.24
2023-03-04T18:00:40.724Z,5.19
2023-03-04T18:03:42.093Z,5.21
2023-03-04T18:06:43.620Z,5.24
2023-03-04T18:09:47.044Z,5.25
2023-03-04T18:12:48.477Z,5.25
2023-03-04T18:15:49.999Z,5.19
2023-03-04T18:18:52.072Z,5.20
2023-03-04T18:21:53.457Z,5.11
2023-03-04T18:24:54.918Z,5.09
2023-03-04T18:27:56.347Z,5.05
2023-03-04T18:30:57.802Z,5.08
2023-03-04T18:34:01.332Z,5.13
2023-03-04T18:37:02.822Z,5.15
2023-03-04T18:40:04.880Z,5.15
2023-03-04T18:43:06.352Z,5.19
2023-03-04T18:46:09.595Z,5.19
2023-03-04T18:49:12.748Z,5.13
2023-03-04T18:52:14.334Z,5.07
2023-03-04T18:55:16.243Z,5.05
2023-03-04T18:58:17.670Z,5.06
2023-03-04T19:01:22.060Z,5.06
2023-03-04T19:04:27.562Z,5.07
2023-03-04T19:07:28.986Z,5.12
2023-03-04T19:10:30.593Z,5.16
2023-03-04T19:13:32.848Z,5.13
2023-03-04T19:16:34.454Z,5.14
2023-03-04T19:19:36.412Z,5.13
2023-03-04T19:22:37.854Z,5.13
2023-03-04T19:25:40.312Z,5.11
2023-03-04T19:28:42.204Z,5.11
2023-03-04T19:31:43.586Z,5.11
2023-03-04T19:34:46.320Z,5.10
2023-03-04T19:37:47.700Z,5.11
2023-03-04T19:40:49.102Z,5.17
2023-03-04T19:43:50.606Z,5.11
2023-03-04T19:46:52.097Z,5.09
2023-03-04T19:49:53.572Z,5.11
2023-03-04T19:52:55.030Z,5.09
2023-03-04T19:55:56.450Z,5.06
2023-03-04T19:58:58.262Z,5.04
2023-03-04T20:02:01.209Z,5.04
2023-03-04T20:05:03.438Z,5.01
2023-03-04T20:08:05.385Z,5.07
2023-03-04T20:11:11.315Z,5.12
2023-03-04T20:14:13.204Z,5.16
2023-03-04T20:17:15.108Z,5.19
2023-03-04T20:20:16.748Z,5.14
2023-03-04T20:23:20.269Z,5.10
2023-03-04T20:26:21.824Z,5.08
2023-03-04T20:29:28.426Z,5.11
2023-03-04T20:32:29.904Z,5.06
2023-03-04T20:35:31.307Z,5.04
2023-03-04T20:38:32.745Z,4.96
2023-03-04T20:41:34.672Z,4.99
2023-03-04T20:44:36.154Z,5.01
2023-03-04T20:47:39.599Z,5.03
2023-03-04T20:50:41.203Z,5.04
2023-03-04T20:53:42.641Z,5.02
2023-03-04T20:56:44.185Z,4.99
2023-03-04T20:59:45.575Z,4.97
2023-03-04T21:02:46.966Z,4.99
2023-03-04T21:05:48.354Z,5.01
2023-03-04T21:08:49.910Z,5.16
2023-03-04T21:11:51.479Z,5.05
2023-03-04T21:14:52.912Z,5.01
2023-03-04T21:17:54.500Z,5.02
2023-03-04T21:20:55.968Z,5.06
2023-03-04T21:23:59.196Z,4.99
2023-03-04T21:27:01.510Z,4.96
2023-03-04T21:30:03.051Z,4.98
2023-03-04T21:33:05.598Z,5.07
2023-03-04T21:36:07.309Z,5.06
2023-03-04T21:39:14.605Z,5.00
2023-03-04T21:42:16.071Z,4.95
2023-03-04T21:45:17.547Z,4.97
2023-03-04T21:48:19.197Z,5.06
2023-03-04T21:51:20.626Z,4.97
2023-03-04T21:54:22.970Z,4.92
2023-03-04T21:57:24.380Z,4.93
2023-03-04T22:00:25.977Z,4.92
2023-03-04T22:03:27.567Z,4.91
2023-03-04T22:06:31.315Z,4.87
2023-03-04T22:09:33.069Z,4.83
2023-03-04T22:12:34.434Z,4.83
2023-03-04T22:15:37.706Z,4.86
2023-03-04T22:18:40.744Z,4.81
2023-03-04T22:21:42.315Z,4.84
2023-03-04T22:24:43.696Z,4.88
2023-03-04T22:27:45.154Z,4.89
2023-03-04T22:30:46.625Z,4.85
2023-03-04T22:33:48.045Z,4.82
2023-03-04T22:36:49.517Z,4.79
2023-03-04T22:39:50.925Z,4.77
2023-03-04T22:42:52.814Z,4.82
2023-03-04T22:45:54.305Z,4.79
2023-03-04T22:48:57.967Z,4.82
2023-03-04T22:51:59.402Z,4.83
2023-03-04T22:55:00.933Z,4.72
2023-03-04T22:58:03.844Z,4.70
2023-03-04T23:01:05.814Z,4.71
2023-03-04T23:04:07.241Z,4.68
2023-03-04T23:07:08.637Z,4.74
2023-03-04T23:10:17.157Z,4.69
2023-03-04T23:13:18.596Z,4.77
2023-03-04T23:16:21.082Z,4.80
2023-03-04T23:19:22.505Z,4.74
2023-03-04T23:22:24.153Z,4.66
2023-03-04T23:25:25.988Z,4.68
2023-03-04T23:28:27.694Z,4.70
2023-03-04T23:31:30.080Z,4.65
2023-03-04T23:34:31.492Z,4.68
2023-03-04T23:37:33.013Z,4.65
2023-03-04T23:40:34.615Z,4.66
2023-03-04T23:43:36.103Z,4.64
2023-03-04T23:46:37.586Z,4.68
2023-03-04T23:49:38.954Z,4.64
2023-03-04T23:52:40.396Z,4.63
2023-03-04T23:55:41.881Z,4.64
2023-03-04T23:58:44.291Z,4.69
